createdAt,value
2017-04-22T00:00:22.636Z,25.33
2017-04-22T00:01:25.035Z,25.36
2017-04-22T00:02:27.424Z,25.21
2017-04-22T00:03:30.414Z,25.28
2017-04-22T00:04:32.784Z,25.22
2017-04-22T00:05:35.166Z,25.26
2017-04-22T00:06:37.565Z,25.16
2017-04-22T00:07:39.932Z,25.25
2017-04-22T00:08:42.934Z,25.18
2017-04-22T00:09:45.327Z,25.21
2017-04-22T00:10:47.718Z,25.11
2017-04-22T00:11:50.117Z,25.03
2017-04-22T00:12:52.502Z,25.04
2017-04-22T00:13:55.581Z,25.07
2017-04-22T00:14:57.970Z,24.93
2017-04-22T00:16:00.363Z,24.92
2017-04-22T00:17:02.756Z,25.08
2017-04-22T00:18:05.139Z,25.06
2017-04-22T00:19:08.135Z,25.06
2017-04-22T00:20:10.498Z,25.07
2017-04-22T00:21:12.891Z,25.13
2017-04-22T00:22:15.274Z,25.22
2017-04-22T00:23:17.881Z,25.13
2017-04-22T00:24:20.876Z,25.04
2017-04-22T00:25:23.473Z,24.74
2017-04-22T00:26:25.859Z,24.66
2017-04-22T00:27:28.235Z,24.58
2017-04-22T00:28:30.628Z,24.58
2017-04-22T00:29:33.641Z,24.43
2017-04-22T00:30:35.997Z,24.54
2017-04-22T00:31:38.400Z,24.38
2017-04-22T00:32:40.787Z,24.42
2017-04-22T00:33:43.157Z,24.39
2017-04-22T00:34:47.178Z,24.39
2017-04-22T00:35:49.338Z,24.39
2017-04-22T00:36:51.736Z,24.42
2017-04-22T00:37:54.130Z,24.42
2017-04-22T00:38:56.544Z,24.38
2017-04-22T00:39:59.509Z,24.30
2017-04-22T00:41:01.900Z,24.32
2017-04-22T00:42:04.957Z,24.39
2017-04-22T00:43:07.750Z,24.39
2017-04-22T00:44:10.047Z,24.47
2017-04-22T00:45:13.065Z,24.45
2017-04-22T00:46:15.455Z,24.51
2017-04-22T00:47:18.482Z,24.42
2017-04-22T00:48:21.372Z,24.32
2017-04-22T00:49:24.252Z,24.35
2017-04-22T00:50:30.121Z,24.40
2017-04-22T00:51:32.972Z,24.33
2017-04-22T00:52:35.525Z,24.33
2017-04-22T00:53:38.496Z,24.36
2017-04-22T00:54:41.323Z,24.32
2017-04-22T00:55:45.409Z,24.33
2017-04-22T00:56:48.166Z,24.32
2017-04-22T00:57:51.055Z,24.39
2017-04-22T00:58:53.817Z,24.43
2017-04-22T00:59:56.227Z,24.42
2017-04-22T01:01:00.229Z,24.47
2017-04-22T01:02:03.068Z,24.43
2017-04-22T01:03:05.805Z,24.43
2017-04-22T01:04:08.082Z,24.40
2017-04-22T01:05:10.529Z,24.42
2017-04-22T01:06:13.556Z,24.40
2017-04-22T01:07:15.971Z,24.40
2017-04-22T01:08:18.448Z,24.47
2017-04-22T01:09:20.919Z,24.43
2017-04-22T01:10:23.211Z,24.45
2017-04-22T01:11:26.199Z,24.38
2017-04-22T01:12:28.599Z,24.43
2017-04-22T01:13:30.959Z,24.42
2017-04-22T01:14:33.356Z,24.45
2017-04-22T01:15:35.732Z,24.43
2017-04-22T01:16:38.707Z,24.50
2017-04-22T01:17:41.115Z,24.43
2017-04-22T01:18:43.487Z,24.45
2017-04-22T01:19:45.875Z,24.32
2017-04-22T01:20:48.242Z,24.17
2017-04-22T01:21:51.380Z,24.23
2017-04-22T01:22:53.773Z,24.26
2017-04-22T01:23:56.176Z,24.24
2017-04-22T01:24:58.550Z,24.18
2017-04-22T01:26:00.942Z,24.20
2017-04-22T01:27:03.928Z,24.14
2017-04-22T01:28:06.311Z,24.18
2017-04-22T01:29:08.712Z,24.14
2017-04-22T01:30:11.092Z,24.11
2017-04-22T01:31:13.491Z,24.13
2017-04-22T01:32:16.633Z,24.16
2017-04-22T01:33:19.032Z,24.16
2017-04-22T01:34:21.392Z,24.17
2017-04-22T01:35:23.791Z,24.17
2017-04-22T01:36:26.170Z,24.10
2017-04-22T01:37:29.127Z,24.13
2017-04-22T01:38:31.507Z,24.17
2017-04-22T01:39:33.899Z,24.17
2017-04-22T01:40:36.299Z,24.02
2017-04-22T01:41:38.674Z,24.08
2017-04-22T01:42:41.719Z,24.06
2017-04-22T01:43:44.091Z,24.03
2017-04-22T01:44:46.477Z,23.98
2017-04-22T01:45:48.853Z,23.96
2017-04-22T01:46:51.248Z,23.95
2017-04-22T01:47:54.397Z,23.99
2017-04-22T01:48:56.786Z,24.02
2017-04-22T01:49:59.184Z,24.05
2017-04-22T01:51:01.575Z,24.03
2017-04-22T01:52:03.963Z,24.13
2017-04-22T01:53:07.111Z,24.11
2017-04-22T01:54:09.500Z,24.14
2017-04-22T01:55:11.888Z,24.16
2017-04-22T01:56:14.243Z,24.16
2017-04-22T01:57:16.629Z,24.10
2017-04-22T01:58:19.571Z,24.13
2017-04-22T01:59:21.963Z,24.11
2017-04-22T02:00:24.341Z,24.11
2017-04-22T02:01:26.723Z,24.16
2017-04-22T02:02:29.124Z,24.13
2017-04-22T02:03:32.105Z,24.14
2017-04-22T02:04:34.491Z,24.14
2017-04-22T02:05:36.883Z,24.14
2017-04-22T02:06:39.274Z,24.18
2017-04-22T02:07:41.673Z,24.13
2017-04-22T02:08:44.804Z,24.14
2017-04-22T02:09:47.202Z,24.14
2017-04-22T02:10:49.595Z,24.18
2017-04-22T02:11:52.067Z,24.21
2017-04-22T02:12:54.470Z,24.18
2017-04-22T02:13:57.417Z,24.23
2017-04-22T02:14:59.821Z,24.23
2017-04-22T02:16:02.224Z,24.24
2017-04-22T02:17:04.612Z,24.28
2017-04-22T02:18:07.000Z,24.26
2017-04-22T02:19:10.287Z,24.29
2017-04-22T02:20:12.616Z,24.24
2017-04-22T02:21:14.966Z,24.36
2017-04-22T02:22:17.465Z,24.32
2017-04-22T02:23:19.908Z,24.33
2017-04-22T02:24:22.866Z,24.28
2017-04-22T02:25:25.523Z,24.33
2017-04-22T02:26:27.954Z,24.26
2017-04-22T02:27:30.404Z,24.24
2017-04-22T02:28:32.739Z,24.23
2017-04-22T02:29:35.786Z,24.28
2017-04-22T02:30:38.302Z,24.32
2017-04-22T02:31:41.267Z,24.28
2017-04-22T02:32:43.577Z,24.33
2017-04-22T02:33:45.976Z,24.24
2017-04-22T02:34:49.315Z,24.24
2017-04-22T02:35:51.537Z,24.24
2017-04-22T02:36:54.009Z,24.23
2017-04-22T02:37:56.402Z,24.20
2017-04-22T02:38:58.779Z,24.18
2017-04-22T02:40:01.732Z,24.24
2017-04-22T02:41:04.094Z,24.16
2017-04-22T02:42:06.508Z,24.14
2017-04-22T02:43:08.872Z,24.11
2017-04-22T02:44:11.256Z,24.13
2017-04-22T02:45:14.399Z,24.24
2017-04-22T02:46:16.787Z,24.24
2017-04-22T02:47:19.182Z,24.17
2017-04-22T02:48:21.568Z,24.18
2017-04-22T02:49:23.947Z,24.21
2017-04-22T02:50:26.954Z,24.23
2017-04-22T02:51:29.311Z,24.11
2017-04-22T02:52:31.695Z,24.13
2017-04-22T02:53:34.082Z,24.16
2017-04-22T02:54:36.480Z,24.10
2017-04-22T02:55:39.469Z,24.16
2017-04-22T02:56:41.859Z,24.18
2017-04-22T02:57:44.253Z,24.21
2017-04-22T02:58:46.647Z,24.13
2017-04-22T02:59:49.670Z,24.17
2017-04-22T03:00:52.677Z,24.17
2017-04-22T03:01:55.118Z,24.13
2017-04-22T03:02:57.506Z,24.10
2017-04-22T03:03:59.867Z,24.16
2017-04-22T03:05:02.431Z,24.14
2017-04-22T03:06:05.551Z,24.16
2017-04-22T03:07:08.031Z,24.14
2017-04-22T03:08:11.050Z,24.11
2017-04-22T03:09:13.440Z,24.17
2017-04-22T03:10:15.782Z,24.16
2017-04-22T03:11:18.782Z,24.21
2017-04-22T03:12:21.159Z,24.20
2017-04-22T03:13:23.547Z,24.17
2017-04-22T03:14:25.942Z,24.17
2017-04-22T03:15:28.331Z,24.20
2017-04-22T03:16:31.306Z,24.28
2017-04-22T03:17:33.684Z,24.14
2017-04-22T03:18:36.077Z,24.30
2017-04-22T03:19:38.458Z,24.24
2017-04-22T03:20:40.861Z,24.20
2017-04-22T03:21:43.847Z,24.18
2017-04-22T03:22:46.244Z,24.24
2017-04-22T03:23:48.623Z,24.30
2017-04-22T03:24:51.432Z,24.28
2017-04-22T03:25:56.054Z,24.36
2017-04-22T03:26:57.623Z,24.30
2017-04-22T03:28:00.577Z,24.32
2017-04-22T03:29:03.486Z,24.20
2017-04-22T03:30:05.884Z,24.23
2017-04-22T03:31:08.369Z,24.26
2017-04-22T03:32:11.592Z,24.21
2017-04-22T03:33:14.192Z,24.17
2017-04-22T03:34:16.792Z,24.23
2017-04-22T03:35:19.286Z,24.24
2017-04-22T03:36:21.804Z,24.29
2017-04-22T03:37:25.519Z,24.24
2017-04-22T03:38:27.848Z,24.23
2017-04-22T03:39:30.233Z,24.24
2017-04-22T03:40:32.627Z,24.32
2017-04-22T03:41:35.012Z,24.26
2017-04-22T03:42:37.979Z,24.29
2017-04-22T03:43:40.386Z,24.23
2017-04-22T03:44:42.804Z,24.26
2017-04-22T03:45:45.175Z,24.21
2017-04-22T03:46:47.568Z,24.26
2017-04-22T03:47:50.565Z,24.28
2017-04-22T03:48:52.924Z,24.23
2017-04-22T03:49:55.298Z,24.23
2017-04-22T03:50:57.661Z,24.20
2017-04-22T03:52:00.029Z,24.24
2017-04-22T03:53:03.018Z,24.18
2017-04-22T03:54:05.407Z,24.24
2017-04-22T03:55:07.784Z,24.28
2017-04-22T03:56:10.145Z,24.32
2017-04-22T03:57:12.523Z,24.33
2017-04-22T03:58:15.622Z,24.29
2017-04-22T03:59:17.996Z,24.30
2017-04-22T04:00:20.342Z,24.29
2017-04-22T04:01:22.863Z,24.30
2017-04-22T04:02:25.212Z,24.26
2017-04-22T04:03:28.343Z,24.23
2017-04-22T04:04:30.742Z,24.23
2017-04-22T04:05:33.081Z,24.28
2017-04-22T04:06:35.497Z,24.24
2017-04-22T04:07:37.872Z,24.26
2017-04-22T04:08:40.835Z,24.23
2017-04-22T04:09:43.200Z,24.30
2017-04-22T04:10:45.571Z,24.21
2017-04-22T04:11:47.930Z,24.24
2017-04-22T04:12:50.353Z,24.20
2017-04-22T04:13:53.461Z,24.17
2017-04-22T04:14:55.909Z,24.26
2017-04-22T04:15:58.272Z,24.28
2017-04-22T04:17:00.563Z,24.21
2017-04-22T04:18:03.036Z,24.24
2017-04-22T04:19:05.958Z,24.26
2017-04-22T04:20:08.329Z,24.20
2017-04-22T04:21:10.672Z,24.20
2017-04-22T04:22:13.114Z,24.30
2017-04-22T04:23:15.494Z,24.32
2017-04-22T04:24:18.496Z,24.32
2017-04-22T04:25:20.922Z,24.33
2017-04-22T04:26:23.282Z,24.26
2017-04-22T04:27:25.670Z,24.35
2017-04-22T04:28:28.042Z,24.32
2017-04-22T04:29:31.001Z,24.28
2017-04-22T04:30:33.295Z,24.32
2017-04-22T04:31:35.659Z,24.26
2017-04-22T04:32:38.034Z,24.30
2017-04-22T04:33:40.470Z,24.29
2017-04-22T04:34:43.437Z,24.29
2017-04-22T04:35:45.837Z,24.18
2017-04-22T04:36:48.225Z,24.24
2017-04-22T04:37:50.618Z,24.23
2017-04-22T04:38:52.997Z,24.21
2017-04-22T04:39:56.087Z,24.30
2017-04-22T04:40:58.478Z,24.23
2017-04-22T04:42:00.846Z,24.24
2017-04-22T04:43:03.235Z,24.32
2017-04-22T04:44:05.620Z,24.24
2017-04-22T04:45:08.759Z,24.23
2017-04-22T04:46:11.115Z,24.23
2017-04-22T04:47:13.495Z,24.21
2017-04-22T04:48:15.884Z,24.26
2017-04-22T04:49:18.246Z,24.21
2017-04-22T04:50:21.377Z,24.33
2017-04-22T04:51:23.743Z,24.35
2017-04-22T04:52:26.134Z,24.24
2017-04-22T04:53:28.477Z,24.30
2017-04-22T04:54:30.873Z,24.29
2017-04-22T04:55:33.833Z,24.28
2017-04-22T04:56:36.200Z,24.36
2017-04-22T04:57:38.559Z,24.35
2017-04-22T04:58:40.932Z,24.23
2017-04-22T04:59:43.299Z,24.39
2017-04-22T05:00:46.294Z,24.35
2017-04-22T05:01:48.628Z,24.29
2017-04-22T05:02:51.005Z,24.33
2017-04-22T05:03:53.381Z,24.36
2017-04-22T05:04:55.770Z,24.29
2017-04-22T05:05:58.745Z,24.32
2017-04-22T05:07:01.104Z,24.28
2017-04-22T05:08:03.473Z,24.33
2017-04-22T05:09:05.828Z,24.29
2017-04-22T05:10:08.190Z,24.38
2017-04-22T05:11:11.098Z,24.28
2017-04-22T05:12:13.466Z,24.24
2017-04-22T05:13:15.837Z,24.21
2017-04-22T05:14:18.200Z,24.23
2017-04-22T05:15:20.561Z,24.23
2017-04-22T05:16:23.536Z,24.20
2017-04-22T05:17:25.900Z,24.24
2017-04-22T05:18:28.278Z,24.23
2017-04-22T05:19:30.641Z,24.23
2017-04-22T05:20:32.997Z,24.20
2017-04-22T05:21:35.906Z,24.23
2017-04-22T05:22:38.276Z,24.21
2017-04-22T05:23:40.647Z,24.16
2017-04-22T05:24:43.012Z,24.13
2017-04-22T05:25:45.370Z,24.11
2017-04-22T05:26:48.288Z,24.21
2017-04-22T05:27:50.646Z,24.14
2017-04-22T05:28:53.017Z,24.14
2017-04-22T05:29:55.403Z,24.05
2017-04-22T05:30:57.770Z,24.06
2017-04-22T05:32:00.823Z,23.96
2017-04-22T05:33:03.197Z,24.08
2017-04-22T05:34:05.567Z,24.03
2017-04-22T05:35:07.932Z,23.96
2017-04-22T05:36:10.291Z,24.06
2017-04-22T05:38:17.841Z,24.01
2017-04-22T05:39:20.269Z,23.96
2017-04-22T05:40:22.632Z,24.10
2017-04-22T05:41:24.992Z,24.03
2017-04-22T05:42:27.370Z,24.02
2017-04-22T05:43:30.338Z,24.08
2017-04-22T05:44:32.687Z,24.03
2017-04-22T05:45:35.049Z,24.06
2017-04-22T05:46:37.413Z,24.02
2017-04-22T05:47:39.773Z,24.03
2017-04-22T05:48:42.736Z,23.95
2017-04-22T05:49:45.113Z,24.05
2017-04-22T05:50:47.503Z,24.01
2017-04-22T05:51:49.864Z,23.98
2017-04-22T05:52:52.222Z,23.96
2017-04-22T05:53:55.187Z,24.03
2017-04-22T05:54:57.545Z,24.02
2017-04-22T05:55:59.907Z,23.95
2017-04-22T05:57:02.262Z,24.05
2017-04-22T05:58:04.623Z,24.06
2017-04-22T05:59:07.688Z,24.02
2017-04-22T06:00:10.050Z,23.98
2017-04-22T06:01:12.422Z,24.02
2017-04-22T06:02:14.792Z,23.99
2017-04-22T06:03:17.152Z,23.93
2017-04-22T06:04:20.061Z,23.93
2017-04-22T06:05:22.420Z,23.95
2017-04-22T06:06:24.778Z,23.95
2017-04-22T06:07:27.141Z,23.95
2017-04-22T06:08:29.502Z,23.96
2017-04-22T06:09:32.514Z,23.99
2017-04-22T06:10:34.878Z,23.95
2017-04-22T06:11:37.249Z,23.99
2017-04-22T06:12:39.609Z,23.98
2017-04-22T06:13:41.974Z,23.92
2017-04-22T06:14:45.032Z,23.91
2017-04-22T06:15:47.399Z,23.88
2017-04-22T06:16:49.759Z,23.92
2017-04-22T06:17:52.121Z,23.93
2017-04-22T06:18:54.477Z,23.95
2017-04-22T06:19:57.436Z,23.91
2017-04-22T06:20:59.798Z,23.91
2017-04-22T06:22:02.152Z,23.91
2017-04-22T06:23:04.519Z,23.91
2017-04-22T06:24:06.882Z,23.88
2017-04-22T06:25:09.798Z,23.88
2017-04-22T06:26:12.151Z,23.83
2017-04-22T06:27:14.514Z,23.81
2017-04-22T06:28:16.877Z,23.83
2017-04-22T06:29:19.245Z,23.78
2017-04-22T06:30:22.302Z,23.80
2017-04-22T06:31:24.666Z,23.81
2017-04-22T06:32:27.025Z,23.77
2017-04-22T06:33:29.397Z,23.88
2017-04-22T06:34:31.765Z,23.83
2017-04-22T06:35:34.717Z,23.87
2017-04-22T06:36:37.086Z,23.92
2017-04-22T06:37:39.441Z,23.86
2017-04-22T06:38:41.809Z,23.91
2017-04-22T06:39:44.165Z,23.86
2017-04-22T06:40:47.087Z,23.87
2017-04-22T06:41:49.448Z,23.86
2017-04-22T06:42:51.811Z,23.91
2017-04-22T06:43:54.171Z,23.87
2017-04-22T06:44:56.546Z,23.87
2017-04-22T06:45:59.452Z,23.91
2017-04-22T06:47:01.815Z,23.92
2017-04-22T06:48:04.187Z,23.87
2017-04-22T06:49:06.546Z,23.84
2017-04-22T06:50:08.907Z,23.86
2017-04-22T06:51:11.823Z,23.86
2017-04-22T06:52:14.183Z,23.80
2017-04-22T06:53:16.545Z,23.87
2017-04-22T06:54:18.899Z,23.86
2017-04-22T06:55:21.270Z,23.80
2017-04-22T06:56:24.226Z,23.81
2017-04-22T06:57:26.600Z,23.84
2017-04-22T06:58:28.952Z,23.76
2017-04-22T06:59:31.311Z,23.83
2017-04-22T07:00:33.671Z,23.71
2017-04-22T07:01:36.640Z,23.69
2017-04-22T07:02:39.007Z,23.61
2017-04-22T07:03:41.374Z,23.55
2017-04-22T07:04:43.733Z,23.58
2017-04-22T07:05:46.094Z,23.51
2017-04-22T07:06:49.055Z,23.55
2017-04-22T07:07:51.419Z,23.51
2017-04-22T07:08:53.781Z,23.50
2017-04-22T07:09:56.137Z,23.46
2017-04-22T07:10:58.503Z,23.56
2017-04-22T07:12:01.458Z,23.44
2017-04-22T07:13:03.817Z,23.51
2017-04-22T07:14:06.183Z,23.48
2017-04-22T07:15:08.541Z,23.46
2017-04-22T07:16:10.899Z,23.36
2017-04-22T07:17:13.958Z,23.37
2017-04-22T07:18:16.313Z,23.36
2017-04-22T07:19:18.682Z,23.34
2017-04-22T07:20:21.038Z,23.25
2017-04-22T07:21:23.402Z,23.21
2017-04-22T07:22:26.359Z,23.27
2017-04-22T07:23:28.726Z,23.25
2017-04-22T07:24:31.096Z,23.28
2017-04-22T07:25:33.459Z,23.23
2017-04-22T07:26:35.817Z,23.31
2017-04-22T07:27:38.787Z,23.31
2017-04-22T07:28:41.142Z,23.31
2017-04-22T07:29:43.503Z,23.32
2017-04-22T07:30:45.863Z,23.24
2017-04-22T07:31:48.226Z,23.25
2017-04-22T07:32:51.287Z,23.28
2017-04-22T07:33:53.649Z,23.25
2017-04-22T07:34:56.012Z,23.18
2017-04-22T07:35:58.373Z,23.15
2017-04-22T07:37:00.734Z,23.13
2017-04-22T07:38:03.700Z,23.13
2017-04-22T07:39:06.058Z,23.09
2017-04-22T07:40:08.416Z,23.09
2017-04-22T07:41:10.790Z,23.06
2017-04-22T07:42:13.155Z,23.10
2017-04-22T07:43:16.120Z,23.10
2017-04-22T07:44:18.475Z,23.02
2017-04-22T07:45:20.835Z,23.08
2017-04-22T07:46:23.204Z,23.09
2017-04-22T07:47:25.569Z,23.10
2017-04-22T07:48:28.624Z,23.10
2017-04-22T07:49:30.987Z,23.17
2017-04-22T07:50:33.352Z,23.00
2017-04-22T07:51:35.717Z,23.05
2017-04-22T07:52:38.083Z,23.06
2017-04-22T07:53:40.998Z,23.03
2017-04-22T07:54:43.366Z,23.02
2017-04-22T07:55:45.725Z,23.10
2017-04-22T07:56:48.084Z,22.99
2017-04-22T07:57:50.439Z,23.09
2017-04-22T07:58:53.355Z,23.03
2017-04-22T07:59:55.722Z,22.98
2017-04-22T08:00:58.083Z,23.05
2017-04-22T08:02:00.442Z,22.94
2017-04-22T08:03:02.805Z,22.96
2017-04-22T08:04:05.879Z,22.98
2017-04-22T08:05:08.233Z,22.98
2017-04-22T08:06:10.595Z,22.93
2017-04-22T08:07:12.950Z,22.96
2017-04-22T08:08:15.309Z,22.94
2017-04-22T08:09:18.379Z,23.02
2017-04-22T08:10:20.736Z,22.91
2017-04-22T08:11:23.105Z,22.93
2017-04-22T08:12:25.456Z,22.93
2017-04-22T08:13:27.820Z,22.98
2017-04-22T08:14:30.880Z,23.00
2017-04-22T08:15:33.234Z,22.96
2017-04-22T08:16:35.592Z,23.00
2017-04-22T08:17:37.958Z,23.03
2017-04-22T08:18:40.333Z,22.93
2017-04-22T08:19:43.240Z,22.99
2017-04-22T08:20:45.609Z,23.00
2017-04-22T08:21:47.977Z,23.03
2017-04-22T08:22:50.342Z,23.02
2017-04-22T08:23:52.698Z,23.08
2017-04-22T08:24:55.750Z,22.99
2017-04-22T08:25:58.116Z,22.93
2017-04-22T08:27:00.479Z,23.02
2017-04-22T08:28:02.841Z,23.06
2017-04-22T08:29:05.221Z,23.10
2017-04-22T08:30:08.130Z,23.09
2017-04-22T08:31:10.485Z,23.15
2017-04-22T08:32:12.864Z,23.17
2017-04-22T08:33:15.216Z,23.15
2017-04-22T08:34:17.576Z,23.15
2017-04-22T08:35:20.632Z,23.20
2017-04-22T08:36:22.998Z,23.31
2017-04-22T08:37:25.355Z,23.27
2017-04-22T08:38:27.709Z,23.37
2017-04-22T08:39:30.087Z,23.34
2017-04-22T08:40:32.999Z,23.37
2017-04-22T08:41:35.558Z,23.48
2017-04-22T08:42:37.930Z,23.55
2017-04-22T08:43:40.287Z,23.48
2017-04-22T08:44:42.643Z,23.56
2017-04-22T08:45:45.703Z,23.55
2017-04-22T08:46:52.062Z,23.48
2017-04-22T08:47:50.429Z,23.47
2017-04-22T08:48:52.790Z,23.50
2017-04-22T08:49:55.144Z,23.58
2017-04-22T08:50:58.112Z,23.55
2017-04-22T08:52:00.470Z,23.47
2017-04-22T08:53:02.843Z,23.41
2017-04-22T08:54:05.203Z,23.41
2017-04-22T08:55:07.560Z,23.50
2017-04-22T08:56:10.621Z,23.41
2017-04-22T08:57:12.984Z,23.50
2017-04-22T08:58:15.352Z,23.41
2017-04-22T08:59:17.711Z,23.41
2017-04-22T09:00:20.072Z,23.40
2017-04-22T09:01:23.139Z,23.47
2017-04-22T09:02:25.509Z,23.47
2017-04-22T09:03:27.871Z,23.41
2017-04-22T09:04:30.226Z,23.47
2017-04-22T09:05:32.585Z,23.43
2017-04-22T09:06:35.556Z,23.31
2017-04-22T09:07:37.920Z,23.36
2017-04-22T09:08:40.286Z,23.28
2017-04-22T09:09:42.652Z,23.31
2017-04-22T09:10:45.004Z,23.36
2017-04-22T09:11:47.964Z,23.31
2017-04-22T09:12:50.527Z,23.36
2017-04-22T09:13:52.891Z,23.40
2017-04-22T09:14:55.248Z,23.41
2017-04-22T09:15:57.606Z,23.41
2017-04-22T09:17:02.670Z,23.41
2017-04-22T09:18:05.032Z,23.43
2017-04-22T09:19:07.395Z,23.46
2017-04-22T09:20:09.761Z,23.54
2017-04-22T09:21:12.121Z,23.55
2017-04-22T09:22:15.080Z,23.44
2017-04-22T09:23:17.438Z,23.55
2017-04-22T09:24:19.789Z,23.51
2017-04-22T09:25:22.149Z,23.55
2017-04-22T09:26:24.522Z,23.55
2017-04-22T09:27:27.578Z,23.54
2017-04-22T09:28:29.938Z,23.56
2017-04-22T09:29:32.292Z,23.54
2017-04-22T09:30:34.658Z,23.50
2017-04-22T09:31:37.029Z,23.43
2017-04-22T09:32:40.084Z,23.36
2017-04-22T09:33:42.463Z,23.39
2017-04-22T09:34:44.808Z,23.37
2017-04-22T09:35:47.169Z,23.28
2017-04-22T09:36:49.527Z,23.37
2017-04-22T09:37:52.684Z,23.34
2017-04-22T09:38:55.044Z,23.28
2017-04-22T09:39:57.406Z,23.27
2017-04-22T09:40:59.777Z,23.32
2017-04-22T09:42:02.334Z,23.31
2017-04-22T09:43:05.302Z,23.24
2017-04-22T09:44:07.654Z,23.24
2017-04-22T09:45:10.016Z,23.18
2017-04-22T09:46:12.384Z,23.20
2017-04-22T09:47:14.734Z,23.23
2017-04-22T09:48:17.805Z,23.05
2017-04-22T09:49:20.159Z,23.10
2017-04-22T09:50:22.515Z,23.06
2017-04-22T09:51:24.873Z,23.02
2017-04-22T09:52:27.241Z,22.96
2017-04-22T09:53:30.202Z,23.06
2017-04-22T09:54:32.560Z,22.96
2017-04-22T09:55:34.927Z,23.03
2017-04-22T09:56:37.282Z,22.98
2017-04-22T09:57:39.642Z,23.09
2017-04-22T09:58:42.550Z,23.08
2017-04-22T09:59:44.910Z,22.99
2017-04-22T10:00:47.283Z,22.93
2017-04-22T10:01:49.637Z,23.03
2017-04-22T10:02:52.000Z,22.96
2017-04-22T10:03:54.958Z,23.00
2017-04-22T10:04:57.320Z,22.99
2017-04-22T10:05:59.681Z,22.94
2017-04-22T10:07:02.049Z,22.98
2017-04-22T10:08:04.406Z,22.96
2017-04-22T10:09:07.470Z,22.90
2017-04-22T10:10:09.831Z,22.91
2017-04-22T10:11:12.189Z,23.03
2017-04-22T10:12:14.550Z,22.94
2017-04-22T10:13:17.109Z,22.99
2017-04-22T10:14:20.020Z,22.94
2017-04-22T10:15:22.376Z,23.10
2017-04-22T10:16:24.740Z,23.17
2017-04-22T10:17:27.108Z,23.09
2017-04-22T10:18:29.465Z,23.09
2017-04-22T10:19:32.527Z,23.10
2017-04-22T10:20:36.090Z,23.12
2017-04-22T10:21:38.646Z,23.17
2017-04-22T10:22:41.013Z,23.15
2017-04-22T10:23:43.582Z,23.12
2017-04-22T10:24:46.649Z,23.21
2017-04-22T10:25:49.007Z,23.15
2017-04-22T10:26:51.375Z,23.13
2017-04-22T10:27:53.729Z,23.20
2017-04-22T10:28:56.089Z,23.21
2017-04-22T10:30:00.958Z,23.15
2017-04-22T10:31:03.322Z,23.21
2017-04-22T10:32:05.691Z,23.13
2017-04-22T10:33:08.252Z,23.18
2017-04-22T10:34:10.610Z,23.20
2017-04-22T10:35:13.677Z,23.23
2017-04-22T10:36:16.037Z,23.10
2017-04-22T10:37:18.390Z,23.03
2017-04-22T10:38:20.748Z,22.98
2017-04-22T10:39:23.312Z,22.98
2017-04-22T10:40:26.223Z,23.00
2017-04-22T10:41:28.579Z,22.96
2017-04-22T10:42:30.944Z,23.06
2017-04-22T10:43:33.307Z,23.12
2017-04-22T10:44:35.663Z,23.13
2017-04-22T10:45:38.626Z,23.06
2017-04-22T10:46:40.983Z,23.08
2017-04-22T10:47:43.350Z,23.09
2017-04-22T10:48:45.703Z,23.17
2017-04-22T10:49:48.062Z,23.24
2017-04-22T10:50:51.023Z,23.34
2017-04-22T10:51:53.382Z,23.27
2017-04-22T10:52:55.740Z,23.27
2017-04-22T10:53:58.127Z,23.21
2017-04-22T10:55:00.469Z,23.20
2017-04-22T10:56:05.339Z,23.24
2017-04-22T10:57:07.689Z,23.17
2017-04-22T10:58:10.053Z,23.13
2017-04-22T10:59:12.423Z,23.20
2017-04-22T11:00:14.786Z,23.05
2017-04-22T11:01:17.843Z,23.17
2017-04-22T11:02:20.205Z,23.13
2017-04-22T11:03:22.567Z,23.23
2017-04-22T11:04:24.933Z,23.15
2017-04-22T11:05:27.300Z,23.25
2017-04-22T11:06:30.359Z,23.17
2017-04-22T11:07:32.723Z,23.17
2017-04-22T11:08:35.074Z,23.20
2017-04-22T11:09:37.450Z,23.23
2017-04-22T11:10:39.802Z,23.24
2017-04-22T11:11:42.712Z,23.23
2017-04-22T11:12:45.270Z,23.21
2017-04-22T11:13:47.631Z,23.23
2017-04-22T11:14:49.990Z,23.27
2017-04-22T11:15:52.348Z,23.25
2017-04-22T11:16:55.404Z,23.23
2017-04-22T11:17:57.769Z,23.24
2017-04-22T11:19:00.129Z,23.21
2017-04-22T11:20:02.489Z,23.23
2017-04-22T11:21:04.846Z,23.24
2017-04-22T11:22:07.758Z,23.31
2017-04-22T11:23:10.111Z,23.25
2017-04-22T11:24:12.470Z,23.23
2017-04-22T11:25:14.832Z,23.24
2017-04-22T11:26:17.189Z,23.27
2017-04-22T11:27:22.105Z,23.39
2017-04-22T11:28:24.471Z,23.40
2017-04-22T11:29:26.828Z,23.37
2017-04-22T11:30:29.190Z,23.48
2017-04-22T11:31:31.554Z,23.41
2017-04-22T11:32:34.518Z,23.46
2017-04-22T11:33:36.879Z,23.37
2017-04-22T11:34:39.242Z,23.48
2017-04-22T11:35:41.605Z,23.50
2017-04-22T11:36:43.954Z,23.48
2017-04-22T11:37:48.821Z,23.46
2017-04-22T11:38:51.184Z,23.44
2017-04-22T11:39:53.540Z,23.55
2017-04-22T11:40:55.903Z,23.51
2017-04-22T11:41:58.259Z,23.50
2017-04-22T11:43:01.240Z,23.44
2017-04-22T11:44:03.593Z,23.51
2017-04-22T11:45:05.955Z,23.58
2017-04-22T11:46:08.318Z,23.55
2017-04-22T11:47:10.679Z,23.59
2017-04-22T11:48:13.656Z,23.69
2017-04-22T11:49:16.010Z,23.73
2017-04-22T11:50:18.382Z,23.63
2017-04-22T11:51:20.752Z,23.50
2017-04-22T11:52:23.119Z,23.63
2017-04-22T11:53:26.087Z,23.71
2017-04-22T11:54:28.446Z,23.61
2017-04-22T11:55:30.824Z,23.74
2017-04-22T11:56:33.192Z,23.61
2017-04-22T11:57:35.567Z,23.69
2017-04-22T11:58:38.523Z,23.55
2017-04-22T11:59:40.884Z,23.54
2017-04-22T12:00:43.255Z,23.58
2017-04-22T12:01:45.612Z,23.55
2017-04-22T12:02:47.978Z,23.59
2017-04-22T12:03:50.945Z,23.55
2017-04-22T12:04:53.303Z,23.48
2017-04-22T12:05:55.664Z,23.54
2017-04-22T12:06:58.020Z,23.59
2017-04-22T12:08:00.387Z,23.62
2017-04-22T12:09:03.300Z,23.55
2017-04-22T12:10:05.660Z,23.54
2017-04-22T12:11:08.019Z,23.68
2017-04-22T12:12:10.379Z,23.51
2017-04-22T12:13:12.752Z,23.56
2017-04-22T12:14:15.717Z,23.59
2017-04-22T12:15:18.075Z,23.54
2017-04-22T12:16:20.437Z,23.59
2017-04-22T12:17:22.802Z,23.58
2017-04-22T12:18:25.167Z,23.59
2017-04-22T12:19:28.077Z,23.55
2017-04-22T12:20:30.441Z,23.56
2017-04-22T12:21:32.808Z,23.59
2017-04-22T12:22:35.170Z,23.58
2017-04-22T12:23:37.535Z,23.55
2017-04-22T12:24:40.504Z,23.55
2017-04-22T12:25:42.869Z,23.62
2017-04-22T12:26:45.239Z,23.55
2017-04-22T12:27:47.611Z,23.59
2017-04-22T12:28:49.978Z,23.61
2017-04-22T12:29:52.938Z,23.59
2017-04-22T12:30:55.296Z,23.71
2017-04-22T12:31:57.668Z,23.68
2017-04-22T12:33:00.032Z,23.63
2017-04-22T12:34:02.400Z,23.54
2017-04-22T12:35:07.323Z,23.58
2017-04-22T13:29:24.602Z,24.29
2017-04-22T13:30:26.943Z,24.33
2017-04-22T13:31:29.320Z,24.32
2017-04-22T13:32:31.683Z,24.29
2017-04-22T13:33:34.061Z,24.33
2017-04-22T13:34:36.967Z,24.39
2017-04-22T13:35:39.334Z,24.38
2017-04-22T13:36:41.698Z,24.39
2017-04-22T13:37:44.068Z,24.45
2017-04-22T13:38:46.433Z,24.47
2017-04-22T13:39:49.446Z,24.38
2017-04-22T13:40:51.811Z,24.39
2017-04-22T13:41:54.191Z,24.43
2017-04-22T13:42:56.563Z,24.40
2017-04-22T13:43:58.931Z,24.40
2017-04-22T13:45:01.909Z,24.47
2017-04-22T13:46:04.285Z,24.45
2017-04-22T13:47:06.660Z,24.40
2017-04-22T13:48:09.025Z,24.45
2017-04-22T13:49:11.401Z,24.35
2017-04-22T13:50:16.321Z,24.40
2017-04-22T13:51:18.694Z,24.43
2017-04-22T13:52:21.066Z,24.36
2017-04-22T13:53:23.431Z,24.32
2017-04-22T13:54:25.801Z,24.26
2017-04-22T13:55:28.771Z,24.21
2017-04-22T13:56:31.147Z,24.23
2017-04-22T13:57:33.512Z,24.21
2017-04-22T13:58:35.881Z,24.21
2017-04-22T13:59:38.251Z,24.20
2017-04-22T14:00:41.234Z,24.21
2017-04-22T14:01:43.590Z,24.18
2017-04-22T14:02:45.961Z,24.13
2017-04-22T14:03:48.334Z,24.16
2017-04-22T14:04:50.704Z,24.18
2017-04-22T14:05:53.671Z,24.26
2017-04-22T14:06:56.038Z,24.23
2017-04-22T14:07:58.412Z,24.28
2017-04-22T14:09:00.782Z,24.32
2017-04-22T14:10:03.149Z,24.43
2017-04-22T14:11:06.123Z,24.45
2017-04-22T14:12:08.502Z,24.54
2017-04-22T14:13:10.869Z,24.69
2017-04-22T14:14:13.237Z,24.77
2017-04-22T14:15:15.606Z,24.92
2017-04-22T14:16:18.532Z,24.93
2017-04-22T14:17:20.899Z,24.99
2017-04-22T14:18:23.274Z,25.10
2017-04-22T14:19:25.646Z,25.18